TLM508 VTBD-VTCC
Flight info
| Callsign | TLM508 |
|---|---|
| Flight time | 0h 59m |
| Altitude | 30000 |
| Route | OLVUK3C OLVUK Y26 MARNI MARNI2B |
| Aircraft | B739/M-SDE2E3FGHIRWXY/LB1 |
Departure
| Time | 2026-04-18 02:11 |
|---|---|
| Airport | Don Mueang International Airport (VTBD) |
Arrival
| Time | 2026-04-18 03:10 |
|---|---|
| Airport | Chiang Mai International Airport (VTCC) |
| Time | Latitude | Longitude | Altitude | Speed | Heading |
|---|---|---|---|---|---|
| 2026-04-18 01:50 | 13.91882 | 100.60381 | 19 ft | 0 kts | 208° |
| 2026-04-18 02:02 | 13.91894 | 100.60388 | 19 ft | 4 kts | 213° |
| 2026-04-18 02:02 | 13.91915 | 100.60405 | 20 ft | 4 kts | 228° |
| 2026-04-18 02:03 | 13.91929 | 100.60427 | 20 ft | 4 kts | 263° |
| 2026-04-18 02:03 | 13.91928 | 100.60441 | 18 ft | 2 kts | 299° |
| 2026-04-18 02:03 | 13.91915 | 100.60465 | 17 ft | 4 kts | 299° |
| 2026-04-18 02:03 | 13.91902 | 100.60489 | 18 ft | 4 kts | 299° |
| 2026-04-18 02:04 | 13.91892 | 100.60509 | 18 ft | 2 kts | 299° |
| 2026-04-18 02:04 | 13.91882 | 100.60532 | 19 ft | 4 kts | 269° |
| 2026-04-18 02:04 | 13.91889 | 100.60548 | 20 ft | 2 kts | 208° |
| 2026-04-18 02:04 | 13.91910 | 100.60560 | 16 ft | 4 kts | 208° |
| 2026-04-18 02:05 | 13.91927 | 100.60569 | 16 ft | 0 kts | 208° |
| 2026-04-18 02:07 | 13.91915 | 100.60563 | 16 ft | 5 kts | 208° |
| 2026-04-18 02:07 | 13.91860 | 100.60576 | 16 ft | 13 kts | 122° |
| 2026-04-18 02:07 | 13.91921 | 100.60651 | 17 ft | 19 kts | 28° |
| 2026-04-18 02:07 | 13.92063 | 100.60730 | 19 ft | 27 kts | 28° |
| 2026-04-18 02:08 | 13.92239 | 100.60830 | 17 ft | 25 kts | 29° |
| 2026-04-18 02:08 | 13.92388 | 100.60912 | 17 ft | 23 kts | 28° |
| 2026-04-18 02:08 | 13.92528 | 100.60991 | 18 ft | 23 kts | 28° |
| 2026-04-18 02:08 | 13.92634 | 100.61059 | 16 ft | 14 kts | 50° |
| 2026-04-18 02:09 | 13.92626 | 100.61142 | 17 ft | 9 kts | 114° |
| 2026-04-18 02:09 | 13.92595 | 100.61198 | 15 ft | 9 kts | 133° |
| 2026-04-18 02:09 | 13.92543 | 100.61189 | 18 ft | 9 kts | 210° |
| 2026-04-18 02:09 | 13.92531 | 100.61183 | 15 ft | 0 kts | 206° |
| 2026-04-18 02:11 | 13.92442 | 100.61137 | 16 ft | 43 kts | 210° |
| 2026-04-18 02:11 | 13.91903 | 100.60829 | 17 ft | 131 kts | 208° |
| 2026-04-18 02:11 | 13.90912 | 100.60274 | 164 ft | 183 kts | 208° |
| 2026-04-18 02:11 | 13.89824 | 100.59646 | 1096 ft | 180 kts | 208° |
| 2026-04-18 02:12 | 13.88701 | 100.58966 | 1942 ft | 192 kts | 215° |
| 2026-04-18 02:12 | 13.87953 | 100.57787 | 2578 ft | 206 kts | 261° |
| 2026-04-18 02:12 | 13.88159 | 100.56327 | 3363 ft | 210 kts | 286° |
| 2026-04-18 02:12 | 13.88699 | 100.54870 | 3779 ft | 232 kts | 289° |
| 2026-04-18 02:13 | 13.89341 | 100.53259 | 4217 ft | 250 kts | 290° |
| 2026-04-18 02:13 | 13.90032 | 100.51528 | 4629 ft | 271 kts | 291° |
| 2026-04-18 02:13 | 13.90752 | 100.49699 | 5339 ft | 279 kts | 291° |
| 2026-04-18 02:13 | 13.91479 | 100.47836 | 6344 ft | 281 kts | 291° |
| 2026-04-18 02:14 | 13.92210 | 100.45951 | 7212 ft | 285 kts | 292° |
| 2026-04-18 02:14 | 13.92947 | 100.44039 | 7712 ft | 287 kts | 292° |
| 2026-04-18 02:14 | 13.93685 | 100.42116 | 7977 ft | 293 kts | 292° |
| 2026-04-18 02:14 | 13.94439 | 100.40152 | 7986 ft | 296 kts | 292° |
| 2026-04-18 02:15 | 13.95192 | 100.38184 | 7989 ft | 294 kts | 292° |
| 2026-04-18 02:15 | 13.95937 | 100.36237 | 7995 ft | 292 kts | 292° |
| 2026-04-18 02:15 | 13.96792 | 100.34355 | 7985 ft | 290 kts | 306° |
| 2026-04-18 02:15 | 13.98316 | 100.33060 | 8017 ft | 286 kts | 339° |
| 2026-04-18 02:16 | 14.00242 | 100.32530 | 8471 ft | 290 kts | 352° |
| 2026-04-18 02:16 | 14.02264 | 100.32286 | 9390 ft | 293 kts | 357° |
| 2026-04-18 02:16 | 14.04304 | 100.32089 | 10320 ft | 297 kts | 356° |
| 2026-04-18 02:16 | 14.06436 | 100.31878 | 10683 ft | 322 kts | 355° |
| 2026-04-18 02:17 | 14.08758 | 100.31629 | 10881 ft | 348 kts | 355° |
| 2026-04-18 02:17 | 14.11190 | 100.31351 | 11317 ft | 362 kts | 354° |
| 2026-04-18 02:17 | 14.13712 | 100.31056 | 12020 ft | 367 kts | 354° |
| 2026-04-18 02:17 | 14.16254 | 100.30755 | 12648 ft | 369 kts | 354° |
| 2026-04-18 02:18 | 14.18814 | 100.30454 | 12858 ft | 373 kts | 354° |
| 2026-04-18 02:18 | 14.21389 | 100.30153 | 12890 ft | 373 kts | 354° |
| 2026-04-18 02:18 | 14.23972 | 100.29852 | 12890 ft | 373 kts | 354° |
| 2026-04-18 02:18 | 14.26551 | 100.29550 | 12891 ft | 373 kts | 354° |
| 2026-04-18 02:19 | 14.29130 | 100.29249 | 12888 ft | 373 kts | 354° |
| 2026-04-18 02:19 | 14.31711 | 100.28947 | 12896 ft | 373 kts | 354° |
| 2026-04-18 02:19 | 14.34293 | 100.28645 | 12888 ft | 374 kts | 354° |
| 2026-04-18 02:19 | 14.36881 | 100.28342 | 12894 ft | 374 kts | 354° |
| 2026-04-18 02:20 | 14.39466 | 100.28040 | 12893 ft | 374 kts | 354° |
| 2026-04-18 02:20 | 14.42051 | 100.27737 | 12895 ft | 374 kts | 354° |
| 2026-04-18 02:20 | 14.44642 | 100.27434 | 12894 ft | 375 kts | 354° |
| 2026-04-18 02:20 | 14.47233 | 100.27117 | 12892 ft | 375 kts | 351° |
| 2026-04-18 02:21 | 14.49752 | 100.26378 | 13256 ft | 380 kts | 339° |
| 2026-04-18 02:21 | 14.52202 | 100.25351 | 14024 ft | 380 kts | 338° |
| 2026-04-18 02:21 | 14.54679 | 100.24405 | 14756 ft | 380 kts | 342° |
| 2026-04-18 02:21 | 14.57234 | 100.23669 | 15415 ft | 382 kts | 346° |
| 2026-04-18 02:22 | 14.59818 | 100.22976 | 16072 ft | 384 kts | 345° |
| 2026-04-18 02:22 | 14.62400 | 100.22219 | 16707 ft | 387 kts | 343° |
| 2026-04-18 02:22 | 14.64986 | 100.21396 | 17301 ft | 390 kts | 342° |
| 2026-04-18 02:22 | 14.67575 | 100.20539 | 17866 ft | 394 kts | 342° |
| 2026-04-18 02:23 | 14.70197 | 100.19659 | 18380 ft | 397 kts | 342° |
| 2026-04-18 02:23 | 14.72818 | 100.18778 | 19015 ft | 394 kts | 342° |
| 2026-04-18 02:23 | 14.75429 | 100.17902 | 19590 ft | 395 kts | 342° |
| 2026-04-18 02:23 | 14.78051 | 100.17025 | 20106 ft | 398 kts | 342° |
| 2026-04-18 02:24 | 14.80703 | 100.16140 | 20466 ft | 404 kts | 342° |
| 2026-04-18 02:24 | 14.83390 | 100.15244 | 20963 ft | 406 kts | 342° |
| 2026-04-18 02:24 | 14.86097 | 100.14341 | 21317 ft | 412 kts | 342° |
| 2026-04-18 02:24 | 14.88845 | 100.13425 | 21684 ft | 416 kts | 341° |
| 2026-04-18 02:25 | 14.91593 | 100.12508 | 22307 ft | 415 kts | 342° |
| 2026-04-18 02:25 | 14.94355 | 100.11586 | 22682 ft | 419 kts | 341° |
| 2026-04-18 02:25 | 14.97138 | 100.10657 | 23103 ft | 422 kts | 341° |
| 2026-04-18 02:25 | 14.99940 | 100.09722 | 23483 ft | 425 kts | 341° |
| 2026-04-18 02:26 | 15.02763 | 100.08780 | 23815 ft | 427 kts | 341° |
| 2026-04-18 02:26 | 15.05599 | 100.07835 | 24139 ft | 430 kts | 341° |
| 2026-04-18 02:26 | 15.08452 | 100.06886 | 24459 ft | 432 kts | 341° |
| 2026-04-18 02:26 | 15.11318 | 100.05933 | 24815 ft | 433 kts | 341° |
| 2026-04-18 02:27 | 15.14195 | 100.04975 | 25137 ft | 435 kts | 341° |
| 2026-04-18 02:27 | 15.17085 | 100.04013 | 25461 ft | 438 kts | 341° |
| 2026-04-18 02:27 | 15.19992 | 100.03044 | 25767 ft | 440 kts | 341° |
| 2026-04-18 02:27 | 15.22913 | 100.02069 | 26078 ft | 442 kts | 341° |
| 2026-04-18 02:28 | 15.25849 | 100.01090 | 26386 ft | 444 kts | 341° |
| 2026-04-18 02:28 | 15.28795 | 100.00107 | 26688 ft | 446 kts | 341° |
| 2026-04-18 02:28 | 15.31758 | 99.99118 | 26990 ft | 448 kts | 341° |
| 2026-04-18 02:28 | 15.34731 | 99.98126 | 27285 ft | 450 kts | 341° |
| 2026-04-18 02:29 | 15.37717 | 99.97128 | 27579 ft | 452 kts | 341° |
| 2026-04-18 02:29 | 15.40677 | 99.96139 | 27864 ft | 454 kts | 340° |
| 2026-04-18 02:29 | 15.43689 | 99.95132 | 28177 ft | 455 kts | 341° |
| 2026-04-18 02:29 | 15.46696 | 99.94127 | 28579 ft | 454 kts | 341° |
| 2026-04-18 02:30 | 15.49698 | 99.93123 | 29023 ft | 452 kts | 341° |
| 2026-04-18 02:30 | 15.52691 | 99.92123 | 29497 ft | 451 kts | 341° |
| 2026-04-18 02:30 | 15.55671 | 99.91126 | 29875 ft | 451 kts | 341° |
| 2026-04-18 02:31 | 15.61655 | 99.89123 | 29887 ft | 451 kts | 341° |
| 2026-04-18 02:31 | 15.67611 | 99.87128 | 29890 ft | 449 kts | 341° |
| 2026-04-18 02:32 | 15.73561 | 99.85134 | 29883 ft | 449 kts | 341° |
| 2026-04-18 02:32 | 15.79505 | 99.83140 | 29892 ft | 449 kts | 341° |
| 2026-04-18 02:33 | 15.85444 | 99.81147 | 29879 ft | 449 kts | 341° |
| 2026-04-18 02:33 | 15.91390 | 99.79151 | 29887 ft | 449 kts | 341° |
| 2026-04-18 02:34 | 15.97334 | 99.77154 | 29879 ft | 449 kts | 341° |
| 2026-04-18 02:34 | 16.03283 | 99.75154 | 29883 ft | 449 kts | 341° |
| 2026-04-18 02:35 | 16.09231 | 99.73153 | 29885 ft | 449 kts | 341° |
| 2026-04-18 02:35 | 16.14077 | 99.71522 | 29887 ft | 450 kts | 341° |
| 2026-04-18 02:36 | 16.20127 | 99.69484 | 29886 ft | 450 kts | 341° |
| 2026-04-18 02:36 | 16.26077 | 99.67479 | 29890 ft | 450 kts | 341° |
| 2026-04-18 02:37 | 16.32033 | 99.65470 | 29890 ft | 450 kts | 341° |
| 2026-04-18 02:37 | 16.37983 | 99.63463 | 29890 ft | 450 kts | 341° |
| 2026-04-18 02:38 | 16.43937 | 99.61459 | 29888 ft | 450 kts | 341° |
| 2026-04-18 02:38 | 16.49893 | 99.59453 | 29890 ft | 450 kts | 341° |
| 2026-04-18 02:39 | 16.55847 | 99.57445 | 29883 ft | 449 kts | 341° |
| 2026-04-18 02:39 | 16.61795 | 99.55438 | 29875 ft | 449 kts | 341° |
| 2026-04-18 02:40 | 16.67741 | 99.53429 | 29899 ft | 449 kts | 341° |
| 2026-04-18 02:40 | 16.73682 | 99.51420 | 29895 ft | 449 kts | 341° |
| 2026-04-18 02:41 | 16.79582 | 99.49419 | 29875 ft | 449 kts | 341° |
| 2026-04-18 02:41 | 16.85514 | 99.47405 | 29885 ft | 448 kts | 341° |
| 2026-04-18 02:42 | 16.91449 | 99.45390 | 29888 ft | 448 kts | 341° |
| 2026-04-18 02:42 | 16.97381 | 99.43373 | 29879 ft | 448 kts | 341° |
| 2026-04-18 02:43 | 17.03315 | 99.41354 | 29875 ft | 448 kts | 341° |
| 2026-04-18 02:43 | 17.09239 | 99.39338 | 29884 ft | 448 kts | 341° |
| 2026-04-18 02:44 | 17.15168 | 99.37319 | 29896 ft | 448 kts | 341° |
| 2026-04-18 02:44 | 17.21093 | 99.35300 | 29899 ft | 448 kts | 341° |
| 2026-04-18 02:45 | 17.27015 | 99.33280 | 29892 ft | 448 kts | 341° |
| 2026-04-18 02:45 | 17.32904 | 99.31271 | 29902 ft | 448 kts | 341° |
| 2026-04-18 02:46 | 17.38823 | 99.29249 | 29907 ft | 447 kts | 341° |
| 2026-04-18 02:46 | 17.44741 | 99.27227 | 29895 ft | 447 kts | 341° |
| 2026-04-18 02:47 | 17.50741 | 99.25491 | 29910 ft | 448 kts | 345° |
| 2026-04-18 02:47 | 17.56820 | 99.24052 | 29920 ft | 448 kts | 346° |
| 2026-04-18 02:48 | 17.62900 | 99.22607 | 29909 ft | 448 kts | 345° |
| 2026-04-18 02:48 | 17.68963 | 99.21108 | 29922 ft | 447 kts | 345° |
| 2026-04-18 02:49 | 17.75016 | 99.19587 | 29912 ft | 447 kts | 345° |
| 2026-04-18 02:49 | 17.81018 | 99.18078 | 29782 ft | 435 kts | 345° |
| 2026-04-18 02:49 | 17.83938 | 99.17345 | 29327 ft | 427 kts | 345° |
| 2026-04-18 02:50 | 17.85844 | 99.16866 | 28974 ft | 423 kts | 345° |
| 2026-04-18 02:50 | 17.88676 | 99.16155 | 28477 ft | 415 kts | 345° |
| 2026-04-18 02:50 | 17.91468 | 99.15452 | 27943 ft | 410 kts | 345° |
| 2026-04-18 02:50 | 17.94220 | 99.14760 | 27421 ft | 404 kts | 345° |
| 2026-04-18 02:51 | 17.96939 | 99.14075 | 26906 ft | 399 kts | 345° |
| 2026-04-18 02:51 | 17.99621 | 99.13400 | 26406 ft | 394 kts | 345° |
| 2026-04-18 02:51 | 18.02277 | 99.12731 | 25911 ft | 390 kts | 345° |
| 2026-04-18 02:51 | 18.04903 | 99.12069 | 25423 ft | 386 kts | 345° |
| 2026-04-18 02:52 | 18.07507 | 99.11413 | 24918 ft | 384 kts | 345° |
| 2026-04-18 02:52 | 18.10096 | 99.10761 | 24423 ft | 381 kts | 346° |
| 2026-04-18 02:52 | 18.12660 | 99.10118 | 23934 ft | 378 kts | 347° |
| 2026-04-18 02:52 | 18.15273 | 99.09941 | 23430 ft | 378 kts | 7° |
| 2026-04-18 02:53 | 18.17832 | 99.10502 | 22941 ft | 375 kts | 13° |
| 2026-04-18 02:53 | 18.20339 | 99.11225 | 22433 ft | 372 kts | 14° |
| 2026-04-18 02:53 | 18.22821 | 99.11938 | 21949 ft | 368 kts | 12° |
| 2026-04-18 02:53 | 18.25303 | 99.12550 | 21468 ft | 364 kts | 10° |
| 2026-04-18 02:54 | 18.27769 | 99.13102 | 21017 ft | 361 kts | 10° |
| 2026-04-18 02:54 | 18.30215 | 99.13654 | 20559 ft | 358 kts | 11° |
| 2026-04-18 02:54 | 18.32634 | 99.14219 | 20109 ft | 355 kts | 11° |
| 2026-04-18 02:54 | 18.35035 | 99.14797 | 19668 ft | 353 kts | 11° |
| 2026-04-18 02:55 | 18.37417 | 99.15381 | 19215 ft | 351 kts | 11° |
| 2026-04-18 02:55 | 18.39785 | 99.15964 | 18759 ft | 349 kts | 11° |
| 2026-04-18 02:55 | 18.42147 | 99.16546 | 18301 ft | 348 kts | 11° |
| 2026-04-18 02:55 | 18.44497 | 99.17126 | 17804 ft | 346 kts | 11° |
| 2026-04-18 02:56 | 18.46831 | 99.17702 | 17340 ft | 343 kts | 11° |
| 2026-04-18 02:56 | 18.49147 | 99.18274 | 16883 ft | 340 kts | 12° |
| 2026-04-18 02:56 | 18.53774 | 99.19080 | 16157 ft | 336 kts | 2° |
| 2026-04-18 02:57 | 18.56114 | 99.19165 | 15930 ft | 346 kts | 360° |
| 2026-04-18 02:57 | 18.58529 | 99.19206 | 15974 ft | 352 kts | 360° |
| 2026-04-18 02:57 | 18.61001 | 99.19256 | 15712 ft | 356 kts | 0° |
| 2026-04-18 02:57 | 18.63471 | 99.19324 | 15435 ft | 354 kts | 0° |
| 2026-04-18 02:58 | 18.65915 | 99.19405 | 15030 ft | 349 kts | 1° |
| 2026-04-18 02:58 | 18.68330 | 99.19495 | 14606 ft | 345 kts | 1° |
| 2026-04-18 02:58 | 18.70720 | 99.19590 | 14157 ft | 342 kts | 1° |
| 2026-04-18 02:58 | 18.73093 | 99.19686 | 13705 ft | 340 kts | 1° |
| 2026-04-18 02:59 | 18.75454 | 99.19782 | 13209 ft | 338 kts | 1° |
| 2026-04-18 02:59 | 18.77796 | 99.19877 | 12762 ft | 335 kts | 1° |
| 2026-04-18 02:59 | 18.80118 | 99.19972 | 12315 ft | 333 kts | 1° |
| 2026-04-18 02:59 | 18.82420 | 99.20066 | 11865 ft | 330 kts | 1° |
| 2026-04-18 03:00 | 18.84713 | 99.20160 | 11390 ft | 330 kts | 1° |
| 2026-04-18 03:00 | 18.86998 | 99.20253 | 10955 ft | 327 kts | 2° |
| 2026-04-18 03:00 | 18.89263 | 99.20346 | 10561 ft | 324 kts | 2° |
| 2026-04-18 03:00 | 18.91476 | 99.20437 | 10419 ft | 312 kts | 2° |
| 2026-04-18 03:01 | 18.93609 | 99.20524 | 10271 ft | 302 kts | 2° |
| 2026-04-18 03:01 | 18.95674 | 99.20609 | 10135 ft | 292 kts | 2° |
| 2026-04-18 03:01 | 18.97666 | 99.20690 | 10022 ft | 282 kts | 2° |
| 2026-04-18 03:01 | 18.99622 | 99.20770 | 9709 ft | 280 kts | 2° |
| 2026-04-18 03:02 | 19.01563 | 99.20788 | 9377 ft | 279 kts | 352° |
| 2026-04-18 03:02 | 19.03332 | 99.20025 | 9053 ft | 276 kts | 321° |
| 2026-04-18 03:02 | 19.04516 | 99.18478 | 8896 ft | 270 kts | 296° |
| 2026-04-18 03:02 | 19.05029 | 99.16566 | 8754 ft | 275 kts | 274° |
| 2026-04-18 03:03 | 19.05044 | 99.14526 | 8616 ft | 280 kts | 268° |
| 2026-04-18 03:03 | 19.04980 | 99.12458 | 8441 ft | 282 kts | 268° |
| 2026-04-18 03:03 | 19.04966 | 99.10371 | 8101 ft | 285 kts | 270° |
| 2026-04-18 03:03 | 19.04995 | 99.08280 | 7756 ft | 283 kts | 270° |
| 2026-04-18 03:04 | 19.05019 | 99.06203 | 7418 ft | 282 kts | 270° |
| 2026-04-18 03:04 | 19.05032 | 99.04135 | 7070 ft | 281 kts | 270° |
| 2026-04-18 03:04 | 19.05039 | 99.02074 | 6717 ft | 279 kts | 270° |
| 2026-04-18 03:04 | 19.05017 | 99.00052 | 6379 ft | 272 kts | 265° |
| 2026-04-18 03:05 | 19.04454 | 98.98195 | 6006 ft | 265 kts | 233° |
| 2026-04-18 03:05 | 19.03089 | 98.96967 | 5703 ft | 257 kts | 208° |
| 2026-04-18 03:05 | 19.01424 | 98.96368 | 5394 ft | 252 kts | 188° |
| 2026-04-18 03:05 | 18.99697 | 98.96282 | 5087 ft | 247 kts | 179° |
| 2026-04-18 03:06 | 18.97997 | 98.96323 | 4788 ft | 242 kts | 180° |
| 2026-04-18 03:06 | 18.96347 | 98.96309 | 4550 ft | 231 kts | 182° |
| 2026-04-18 03:06 | 18.94774 | 98.96289 | 4293 ft | 224 kts | 181° |
| 2026-04-18 03:06 | 18.93242 | 98.96290 | 4028 ft | 217 kts | 180° |
| 2026-04-18 03:07 | 18.91751 | 98.96291 | 3746 ft | 211 kts | 180° |
| 2026-04-18 03:07 | 18.90305 | 98.96291 | 3456 ft | 205 kts | 180° |
| 2026-04-18 03:07 | 18.88914 | 98.96291 | 3185 ft | 195 kts | 180° |
| 2026-04-18 03:07 | 18.87604 | 98.96291 | 2952 ft | 182 kts | 180° |
| 2026-04-18 03:08 | 18.86395 | 98.96291 | 2728 ft | 166 kts | 180° |
| 2026-04-18 03:08 | 18.85239 | 98.96291 | 2485 ft | 165 kts | 180° |
| 2026-04-18 03:08 | 18.84110 | 98.96292 | 2277 ft | 164 kts | 180° |
| 2026-04-18 03:08 | 18.82981 | 98.96292 | 2068 ft | 162 kts | 180° |
| 2026-04-18 03:09 | 18.81841 | 98.96292 | 1851 ft | 165 kts | 180° |
| 2026-04-18 03:09 | 18.80702 | 98.96292 | 1622 ft | 162 kts | 180° |
| 2026-04-18 03:09 | 18.79569 | 98.96292 | 1422 ft | 164 kts | 180° |
| 2026-04-18 03:09 | 18.78432 | 98.96297 | 1144 ft | 162 kts | 180° |
| 2026-04-18 03:10 | 18.77347 | 98.96292 | 1037 ft | 147 kts | 180° |
| 2026-04-18 03:10 | 18.76431 | 98.96289 | 1031 ft | 112 kts | 181° |
| 2026-04-18 03:10 | 18.75803 | 98.96285 | 1031 ft | 69 kts | 180° |
| 2026-04-18 03:10 | 18.75574 | 98.96296 | 1031 ft | 11 kts | 155° |
| 2026-04-18 03:11 | 18.75546 | 98.96365 | 1031 ft | 11 kts | 103° |
| 2026-04-18 03:11 | 18.75542 | 98.96442 | 1031 ft | 10 kts | 89° |
| 2026-04-18 03:11 | 18.75568 | 98.96507 | 1031 ft | 10 kts | 31° |
| 2026-04-18 03:11 | 18.75636 | 98.96517 | 1031 ft | 10 kts | 359° |
| 2026-04-18 03:12 | 18.75728 | 98.96515 | 1031 ft | 19 kts | 1° |
| 2026-04-18 03:12 | 18.75894 | 98.96516 | 1031 ft | 26 kts | 0° |
| 2026-04-18 03:12 | 18.76070 | 98.96516 | 1031 ft | 24 kts | 360° |
| 2026-04-18 03:12 | 18.76232 | 98.96517 | 1031 ft | 23 kts | 2° |
| 2026-04-18 03:13 | 18.76389 | 98.96516 | 1031 ft | 22 kts | 1° |
| 2026-04-18 03:13 | 18.76541 | 98.96516 | 1031 ft | 22 kts | 0° |
| 2026-04-18 03:13 | 18.76689 | 98.96520 | 1031 ft | 21 kts | 13° |
| 2026-04-18 03:13 | 18.76761 | 98.96640 | 1031 ft | 20 kts | 31° |
| 2026-04-18 03:14 | 18.76831 | 98.96648 | 1031 ft | 4 kts | 5° |
| 2026-04-18 03:14 | 18.76845 | 98.96686 | 1031 ft | 9 kts | 110° |
| 2026-04-18 03:14 | 18.76843 | 98.96720 | 1031 ft | 2 kts | 80° |
| 2026-04-18 03:14 | 18.76843 | 98.96733 | 1031 ft | 2 kts | 88° |
| 2026-04-18 03:15 | 18.76843 | 98.96735 | 1031 ft | 0 kts | 89° |